首页
METAR-TAF:

METAR-TAF

机场 :

巴黎夏尔·戴高乐机场

巴黎戴高乐, 法国

纬度: 49-01N, 经度: 002-32E, 海拔: 118米

当前天气观测

该预报发布于37分钟前的05:30 UTC
风速5节,风向南转南东
温度 12°C
湿度 94%
气压 1010 hPa
能见度10公里或以上
少量云层高于3600英尺
多云层高于5300英尺
小雨, 毛毛雨

METAR: LFPG 170530Z 16005KT 9999 -RADZ FEW036 BKN053 12/11 Q1010 NOSIG

时间: 08:07 (06:07 UTC)

预报

该预报发布于1小时和7分钟前的05:00 UTC
预报有效从17日的 06点(UTC)到 18日的 12点(UTC)
风速8节,风向
能见度10公里或以上
散云层高于1500英尺
多云层高于6000英尺
几率 40% :
短暂存在
从 17日的 09点(UTC)到 17日的 12点(UTC)
能見度: 3500
多云层高于600英尺
多云层高于1600英尺
雨, 毛毛雨
几率 40% :
短暂存在
从 17日的 20点(UTC)到 17日的 22点(UTC)
能見度: 3000
散云层高于1300英尺, 塔状积云.
阵雨
短暂存在
从 18日的 03点(UTC)到 18日的 08点(UTC)
风速15节,风向西南,有时为30节阵风
几率 40% :
短暂存在
从 18日的 04点(UTC)到 18日的 06点(UTC)
能見度: 4000
散云层高于1200英尺, 塔状积云.
多云层高于3000英尺
阵雨

TAF: LFPG 170500Z 1706/1812 19008KT 9999 SCT015 BKN060 TX16/1716Z TN12/1706Z PROB40 TEMPO 1709/1712 3500 RADZ BKN006 BKN016 PROB40 TEMPO 1720/1722 3000 SHRA SCT013TCU TEMPO 1803/1808 22015G30KT PROB40 TEMPO 1804/1806 4000 SHRA SCT012TCU BKN030

超过4000个机场的气象观测和天气预报(METAR&TAF报告)。

可查询的气象台以黄色和红色小点在地图上表示。

将鼠标移到小点上方,可查看气象台名称。

然后点击查看天气观测和预报。

如需切换地图:点击带黑十字的绿色按钮放大地图;点击带横线的绿色按钮缩小地图;或者点击绿色箭头查看邻近地区的地图。


METAR-TAF: